Flight Track Log - Related Links

Times and Time Zones

All times are in EDT time to prevent confusion due to time zone crossing. See the FLG3906 flight status page for this flight to view local times or setup timezone preferences in your user account.

Time Position Orientation Groundspeed Altitude Reporting Facility
EDT Latitude Longitude Course Direction KTS MPH feet Rate Location/Type
Fri 06:36:15 PM 34.2817 -88.7917 271° West  Level FlightAware Approximate
Fri 06:38:29 PM 34.2828 -88.8664 351° North 294 338 5,700  Level Memphis Center
Fri 06:39:29 PM 34.3581 -88.8803 348° North 289 333 6,900 600 Climbing Memphis Center
Fri 06:40:29 PM 34.4333 -88.8992 350° North 289 333 6,900 950 Level Memphis Center
Fri 06:41:29 PM 34.5086 -88.9156 349° North 276 318 8,800 1,500 Climbing Memphis Center
Fri 06:42:29 PM 34.5861 -88.9344 324° Northwest 276 318 9,900 550 Climbing Memphis Center
Fri 06:43:29 PM 34.6450 -88.9864 287° West 269 310 9,900  Level Memphis Center
Fri 06:44:29 PM 34.6647 -89.0669 286° West 256 295 9,900  Level Memphis Center
Fri 06:45:29 PM 34.6886 -89.1675 286° West 271 312 9,900 50 Level Memphis Center
Fri 06:46:29 PM 34.7103 -89.2581 286° West 279 321 10,000 50 Climbing Memphis Center
Fri 06:47:29 PM 34.7297 -89.3389 288° West 279 321 10,000 -500 Level Memphis Center
Fri 06:48:29 PM 34.7536 -89.4294 291° West 279 321 9,000 -500 Descending Memphis Center
Fri 06:49:29 PM 34.7811 -89.5178 302° West 279 321 9,000  Level Memphis Center
Fri 06:50:29 PM 34.8214 -89.5956 302° West 279 321 9,000  Level Memphis Center
Fri 06:51:29 PM 34.8614 -89.6739 303° West 279 321 9,000 -150 Level Memphis Center
Fri 06:52:29 PM 34.9036 -89.7544 301° West 279 321 8,700 -500 Descending Memphis Center
Fri 06:53:29 PM 34.9478 -89.8428 328° Northwest 279 321 8,000 -700 Descending Memphis Center
Fri 06:54:29 PM 35.0003 -89.8831 North 252 290 7,300 -1,150 Descending Memphis Center
Fri 06:55:29 PM 35.0772 -89.8800 North 245 282 5,700 -1,450 Descending Memphis Center
Fri 06:56:29 PM 35.1419 -89.8719 358° North 238 274 4,400 -1,200 Descending Memphis Center
Fri 06:57:29 PM 35.2044 -89.8742 243° Southwest 226 260 3,300 -814 Descending Memphis Center
Fri 06:59:26 PM 35.1667 -89.9667 180° South 179 206 2,000 -545 Descending Anchorage Center
Fri 07:00:25 PM 35.1167 -89.9667 180° South 157 181 1,700 -513 Descending Anchorage Center
Fri 07:01:23 PM 35.0833 -89.9667 180° South 141 162 1,000 -724 Descending Anchorage Center

Login

Don't have an account? Register now (free) for customized features, flight alerts, and more!